<?xml version="1.0" encoding="UTF-8" standalone="no" ?>
<gpx xmlns="http://www.topografix.com/GPX/1/1" xmlns:xsi="http://www.w3.org/2001/XMLSchema-instance" xsi:schemaLocation="http://www.topografix.com/GPX/1/1 http://www.topografix.com/GPX/1/1/gpx.xsd" version="1.1" creator="VisuGPX - https://www.visugpx.com">
  <metadata>
    <name>randogps38-362</name>
  </metadata>
  <wpt lat="45.6935" lon="5.47447">
    <ele>204</ele>
    <name><![CDATA[parking]]></name>
    <desc><![CDATA[17-AOU-15 8:51:34]]></desc>
    <cmt><![CDATA[17-AOU-15 8:51:34]]></cmt>
  </wpt>
  <wpt lat="45.7137" lon="5.47847">
    <ele>254</ele>
    <name><![CDATA[Pylone]]></name>
    <desc><![CDATA[17-AOU-15 9:51:14]]></desc>
    <cmt><![CDATA[17-AOU-15 9:51:14]]></cmt>
  </wpt>
  <wpt lat="45.69948" lon="5.46957">
    <ele>221</ele>
    <name><![CDATA[Roche plage]]></name>
    <desc><![CDATA[17-AOU-15 9:08:37]]></desc>
    <cmt><![CDATA[17-AOU-15 9:08:37]]></cmt>
  </wpt>
  <wpt lat="45.71319" lon="5.47873">
    <ele>254</ele>
    <name><![CDATA[tourner droite]]></name>
    <desc><![CDATA[17-AOU-15 9:56:18]]></desc>
    <cmt><![CDATA[17-AOU-15 9:56:18]]></cmt>
  </wpt>
  <wpt lat="45.70612" lon="5.46981">
    <ele>238</ele>
    <name><![CDATA[Vernay]]></name>
    <desc><![CDATA[17-AOU-15 9:20:00]]></desc>
    <cmt><![CDATA[17-AOU-15 9:20:00]]></cmt>
  </wpt>
  <trk>
    <name><![CDATA[randogps38-362]]></name>
    <trkseg>
      <trkpt lat="45.69344" lon="5.47441">
        <ele>223.125</ele>
        <time>2014-07-05T20:00:00Z</time>
      </trkpt>
      <trkpt lat="45.69357" lon="5.47406">
        <ele>221.058594</ele>
        <time>2014-07-05T20:00:05Z</time>
      </trkpt>
      <trkpt lat="45.69405" lon="5.4741">
        <ele>224.242188</ele>
        <time>2014-07-05T20:00:10Z</time>
      </trkpt>
      <trkpt lat="45.69515" lon="5.47329">
        <ele>225.382812</ele>
        <time>2014-07-05T20:00:15Z</time>
      </trkpt>
      <trkpt lat="45.69546" lon="5.47246">
        <ele>225.128906</ele>
        <time>2014-07-05T20:00:20Z</time>
      </trkpt>
      <trkpt lat="45.69535" lon="5.47218">
        <ele>221.316406</ele>
        <time>2014-07-05T20:00:25Z</time>
      </trkpt>
      <trkpt lat="45.69527" lon="5.47187">
        <ele>219.191406</ele>
        <time>2014-07-05T20:00:30Z</time>
      </trkpt>
      <trkpt lat="45.69535" lon="5.47142">
        <ele>220.394531</ele>
        <time>2014-07-05T20:00:35Z</time>
      </trkpt>
      <trkpt lat="45.69535" lon="5.47142">
        <ele>220.507812</ele>
        <time>2014-07-05T20:00:40Z</time>
      </trkpt>
      <trkpt lat="45.69535" lon="5.471">
        <ele>221.207031</ele>
        <time>2014-07-05T20:00:45Z</time>
      </trkpt>
      <trkpt lat="45.69536" lon="5.471">
        <ele>221.289062</ele>
        <time>2014-07-05T20:00:50Z</time>
      </trkpt>
      <trkpt lat="45.69555" lon="5.4703">
        <ele>223.753906</ele>
        <time>2014-07-05T20:00:55Z</time>
      </trkpt>
      <trkpt lat="45.69584" lon="5.46929">
        <ele>223.445312</ele>
        <time>2014-07-05T20:01:00Z</time>
      </trkpt>
      <trkpt lat="45.69654" lon="5.46884">
        <ele>224.988281</ele>
        <time>2014-07-05T20:01:05Z</time>
      </trkpt>
      <trkpt lat="45.69713" lon="5.46859">
        <ele>226.867188</ele>
        <time>2014-07-05T20:01:10Z</time>
      </trkpt>
      <trkpt lat="45.69713" lon="5.46879">
        <ele>228.222656</ele>
        <time>2014-07-05T20:01:15Z</time>
      </trkpt>
      <trkpt lat="45.69704" lon="5.46952">
        <ele>230.121094</ele>
        <time>2014-07-05T20:01:20Z</time>
      </trkpt>
      <trkpt lat="45.69722" lon="5.47">
        <ele>229.769531</ele>
        <time>2014-07-05T20:01:25Z</time>
      </trkpt>
      <trkpt lat="45.69741" lon="5.47025">
        <ele>229.089844</ele>
        <time>2014-07-05T20:01:30Z</time>
      </trkpt>
      <trkpt lat="45.69774" lon="5.47041">
        <ele>230.171875</ele>
        <time>2014-07-05T20:01:35Z</time>
      </trkpt>
      <trkpt lat="45.69808" lon="5.47035">
        <ele>232.082031</ele>
        <time>2014-07-05T20:01:40Z</time>
      </trkpt>
      <trkpt lat="45.69845" lon="5.46992">
        <ele>231.90625</ele>
        <time>2014-07-05T20:01:45Z</time>
      </trkpt>
      <trkpt lat="45.69891" lon="5.46971">
        <ele>233.316406</ele>
        <time>2014-07-05T20:01:50Z</time>
      </trkpt>
      <trkpt lat="45.69933" lon="5.46957">
        <ele>235.734375</ele>
        <time>2014-07-05T20:01:55Z</time>
      </trkpt>
      <trkpt lat="45.69936" lon="5.46957">
        <ele>235.898438</ele>
        <time>2014-07-05T20:02:00Z</time>
      </trkpt>
      <trkpt lat="45.69955" lon="5.46952">
        <ele>236.453125</ele>
        <time>2014-07-05T20:02:05Z</time>
      </trkpt>
      <trkpt lat="45.69956" lon="5.46952">
        <ele>236.46875</ele>
        <time>2014-07-05T20:02:10Z</time>
      </trkpt>
      <trkpt lat="45.69986" lon="5.46935">
        <ele>237.351562</ele>
        <time>2014-07-05T20:02:15Z</time>
      </trkpt>
      <trkpt lat="45.70015" lon="5.46903">
        <ele>238</ele>
        <time>2014-07-05T20:02:20Z</time>
      </trkpt>
      <trkpt lat="45.70041" lon="5.46797">
        <ele>235.671875</ele>
        <time>2014-07-05T20:02:25Z</time>
      </trkpt>
      <trkpt lat="45.70109" lon="5.46662">
        <ele>234.179688</ele>
        <time>2014-07-05T20:02:30Z</time>
      </trkpt>
      <trkpt lat="45.70122" lon="5.46631">
        <ele>234.632812</ele>
        <time>2014-07-05T20:02:35Z</time>
      </trkpt>
      <trkpt lat="45.70135" lon="5.46615">
        <ele>235.109375</ele>
        <time>2014-07-05T20:02:40Z</time>
      </trkpt>
      <trkpt lat="45.70204" lon="5.46691">
        <ele>237.726562</ele>
        <time>2014-07-05T20:02:45Z</time>
      </trkpt>
      <trkpt lat="45.70242" lon="5.46698">
        <ele>237.035156</ele>
        <time>2014-07-05T20:02:50Z</time>
      </trkpt>
      <trkpt lat="45.70275" lon="5.46731">
        <ele>235.59375</ele>
        <time>2014-07-05T20:02:55Z</time>
      </trkpt>
      <trkpt lat="45.70318" lon="5.46758">
        <ele>235.195312</ele>
        <time>2014-07-05T20:03:00Z</time>
      </trkpt>
      <trkpt lat="45.70397" lon="5.46834">
        <ele>241.605469</ele>
        <time>2014-07-05T20:03:05Z</time>
      </trkpt>
      <trkpt lat="45.70414" lon="5.46844">
        <ele>242.703125</ele>
        <time>2014-07-05T20:03:10Z</time>
      </trkpt>
      <trkpt lat="45.70444" lon="5.46861">
        <ele>242.992188</ele>
        <time>2014-07-05T20:03:15Z</time>
      </trkpt>
      <trkpt lat="45.70486" lon="5.4688">
        <ele>242.695312</ele>
        <time>2014-07-05T20:03:20Z</time>
      </trkpt>
      <trkpt lat="45.70544" lon="5.46904">
        <ele>242.539062</ele>
        <time>2014-07-05T20:03:25Z</time>
      </trkpt>
      <trkpt lat="45.7057" lon="5.46935">
        <ele>245.109375</ele>
        <time>2014-07-05T20:03:30Z</time>
      </trkpt>
      <trkpt lat="45.70595" lon="5.46954">
        <ele>246.5625</ele>
        <time>2014-07-05T20:03:35Z</time>
      </trkpt>
      <trkpt lat="45.70614" lon="5.46981">
        <ele>247.9375</ele>
        <time>2014-07-05T20:03:40Z</time>
      </trkpt>
      <trkpt lat="45.70626" lon="5.46987">
        <ele>247.75</ele>
        <time>2014-07-05T20:03:45Z</time>
      </trkpt>
      <trkpt lat="45.70658" lon="5.46965">
        <ele>247</ele>
        <time>2014-07-05T20:03:50Z</time>
      </trkpt>
      <trkpt lat="45.7071" lon="5.46962">
        <ele>247.5</ele>
        <time>2014-07-05T20:03:55Z</time>
      </trkpt>
      <trkpt lat="45.7071" lon="5.46962">
        <ele>247.523438</ele>
        <time>2014-07-05T20:04:00Z</time>
      </trkpt>
      <trkpt lat="45.70758" lon="5.47035">
        <ele>248.535156</ele>
        <time>2014-07-05T20:04:05Z</time>
      </trkpt>
      <trkpt lat="45.70818" lon="5.47081">
        <ele>250.777344</ele>
        <time>2014-07-05T20:04:10Z</time>
      </trkpt>
      <trkpt lat="45.70854" lon="5.47126">
        <ele>251.464844</ele>
        <time>2014-07-05T20:04:15Z</time>
      </trkpt>
      <trkpt lat="45.70893" lon="5.47181">
        <ele>252.285156</ele>
        <time>2014-07-05T20:04:20Z</time>
      </trkpt>
      <trkpt lat="45.70915" lon="5.47214">
        <ele>252.738281</ele>
        <time>2014-07-05T20:04:25Z</time>
      </trkpt>
      <trkpt lat="45.70925" lon="5.47243">
        <ele>253.117188</ele>
        <time>2014-07-05T20:04:30Z</time>
      </trkpt>
      <trkpt lat="45.70925" lon="5.47243">
        <ele>253.117188</ele>
        <time>2014-07-05T20:04:35Z</time>
      </trkpt>
      <trkpt lat="45.70934" lon="5.47259">
        <ele>253.796875</ele>
        <time>2014-07-05T20:04:40Z</time>
      </trkpt>
      <trkpt lat="45.70968" lon="5.47292">
        <ele>255.6875</ele>
        <time>2014-07-05T20:04:45Z</time>
      </trkpt>
      <trkpt lat="45.70984" lon="5.47309">
        <ele>256.765625</ele>
        <time>2014-07-05T20:04:50Z</time>
      </trkpt>
      <trkpt lat="45.71004" lon="5.47343">
        <ele>258.78125</ele>
        <time>2014-07-05T20:04:55Z</time>
      </trkpt>
      <trkpt lat="45.71004" lon="5.47345">
        <ele>258.78125</ele>
        <time>2014-07-05T20:05:00Z</time>
      </trkpt>
      <trkpt lat="45.71003" lon="5.47363">
        <ele>258.765625</ele>
        <time>2014-07-05T20:05:05Z</time>
      </trkpt>
      <trkpt lat="45.71004" lon="5.47363">
        <ele>258.8125</ele>
        <time>2014-07-05T20:05:10Z</time>
      </trkpt>
      <trkpt lat="45.71014" lon="5.47402">
        <ele>259.460938</ele>
        <time>2014-07-05T20:05:15Z</time>
      </trkpt>
      <trkpt lat="45.71015" lon="5.47403">
        <ele>259.46875</ele>
        <time>2014-07-05T20:05:20Z</time>
      </trkpt>
      <trkpt lat="45.71043" lon="5.47447">
        <ele>259.777344</ele>
        <time>2014-07-05T20:05:25Z</time>
      </trkpt>
      <trkpt lat="45.71046" lon="5.47449">
        <ele>259.917969</ele>
        <time>2014-07-05T20:05:30Z</time>
      </trkpt>
      <trkpt lat="45.71078" lon="5.47491">
        <ele>261.171875</ele>
        <time>2014-07-05T20:05:35Z</time>
      </trkpt>
      <trkpt lat="45.71091" lon="5.47521">
        <ele>261.304688</ele>
        <time>2014-07-05T20:05:40Z</time>
      </trkpt>
      <trkpt lat="45.71147" lon="5.47612">
        <ele>264.089844</ele>
        <time>2014-07-05T20:05:45Z</time>
      </trkpt>
      <trkpt lat="45.71169" lon="5.47636">
        <ele>264.773438</ele>
        <time>2014-07-05T20:05:50Z</time>
      </trkpt>
      <trkpt lat="45.71165" lon="5.47659">
        <ele>263.546875</ele>
        <time>2014-07-05T20:05:55Z</time>
      </trkpt>
      <trkpt lat="45.71166" lon="5.47683">
        <ele>262.804688</ele>
        <time>2014-07-05T20:06:00Z</time>
      </trkpt>
      <trkpt lat="45.71166" lon="5.47684">
        <ele>262.785156</ele>
        <time>2014-07-05T20:06:05Z</time>
      </trkpt>
      <trkpt lat="45.71156" lon="5.47702">
        <ele>261.867188</ele>
        <time>2014-07-05T20:06:10Z</time>
      </trkpt>
      <trkpt lat="45.71156" lon="5.47702">
        <ele>261.863281</ele>
        <time>2014-07-05T20:06:15Z</time>
      </trkpt>
      <trkpt lat="45.71162" lon="5.47725">
        <ele>262.007812</ele>
        <time>2014-07-05T20:06:20Z</time>
      </trkpt>
      <trkpt lat="45.7118" lon="5.47748">
        <ele>262.476562</ele>
        <time>2014-07-05T20:06:25Z</time>
      </trkpt>
      <trkpt lat="45.7118" lon="5.47748">
        <ele>262.484375</ele>
        <time>2014-07-05T20:06:30Z</time>
      </trkpt>
      <trkpt lat="45.71209" lon="5.47715">
        <ele>264.804688</ele>
        <time>2014-07-05T20:06:35Z</time>
      </trkpt>
      <trkpt lat="45.71225" lon="5.47746">
        <ele>264.851562</ele>
        <time>2014-07-05T20:06:40Z</time>
      </trkpt>
      <trkpt lat="45.71231" lon="5.47764">
        <ele>264.84375</ele>
        <time>2014-07-05T20:06:45Z</time>
      </trkpt>
      <trkpt lat="45.71231" lon="5.47765">
        <ele>264.828125</ele>
        <time>2014-07-05T20:06:50Z</time>
      </trkpt>
      <trkpt lat="45.71246" lon="5.47775">
        <ele>265.113281</ele>
        <time>2014-07-05T20:06:55Z</time>
      </trkpt>
      <trkpt lat="45.71259" lon="5.47762">
        <ele>265.90625</ele>
        <time>2014-07-05T20:07:00Z</time>
      </trkpt>
      <trkpt lat="45.71264" lon="5.47743">
        <ele>267.003906</ele>
        <time>2014-07-05T20:07:05Z</time>
      </trkpt>
      <trkpt lat="45.71264" lon="5.47728">
        <ele>267.550781</ele>
        <time>2014-07-05T20:07:10Z</time>
      </trkpt>
      <trkpt lat="45.71273" lon="5.47722">
        <ele>268.09375</ele>
        <time>2014-07-05T20:07:15Z</time>
      </trkpt>
      <trkpt lat="45.71285" lon="5.47747">
        <ele>267.148438</ele>
        <time>2014-07-05T20:07:20Z</time>
      </trkpt>
      <trkpt lat="45.71294" lon="5.47763">
        <ele>266.03125</ele>
        <time>2014-07-05T20:07:25Z</time>
      </trkpt>
      <trkpt lat="45.71309" lon="5.47751">
        <ele>266.515625</ele>
        <time>2014-07-05T20:07:30Z</time>
      </trkpt>
      <trkpt lat="45.71309" lon="5.47752">
        <ele>266.460938</ele>
        <time>2014-07-05T20:07:35Z</time>
      </trkpt>
      <trkpt lat="45.71321" lon="5.47728">
        <ele>268.398438</ele>
        <time>2014-07-05T20:07:40Z</time>
      </trkpt>
      <trkpt lat="45.71353" lon="5.47707">
        <ele>268.550781</ele>
        <time>2014-07-05T20:07:45Z</time>
      </trkpt>
      <trkpt lat="45.71393" lon="5.47616">
        <ele>270.453125</ele>
        <time>2014-07-05T20:07:50Z</time>
      </trkpt>
      <trkpt lat="45.71415" lon="5.47586">
        <ele>269.773438</ele>
        <time>2014-07-05T20:07:55Z</time>
      </trkpt>
      <trkpt lat="45.71418" lon="5.47557">
        <ele>270.316406</ele>
        <time>2014-07-05T20:08:00Z</time>
      </trkpt>
      <trkpt lat="45.71418" lon="5.47558">
        <ele>270.296875</ele>
        <time>2014-07-05T20:08:05Z</time>
      </trkpt>
      <trkpt lat="45.71463" lon="5.47518">
        <ele>269.746094</ele>
        <time>2014-07-05T20:08:10Z</time>
      </trkpt>
      <trkpt lat="45.7149" lon="5.47535">
        <ele>267.171875</ele>
        <time>2014-07-05T20:08:15Z</time>
      </trkpt>
      <trkpt lat="45.7151" lon="5.47537">
        <ele>266.375</ele>
        <time>2014-07-05T20:08:20Z</time>
      </trkpt>
      <trkpt lat="45.71511" lon="5.47537">
        <ele>266.332031</ele>
        <time>2014-07-05T20:08:25Z</time>
      </trkpt>
      <trkpt lat="45.71545" lon="5.47504">
        <ele>266.953125</ele>
        <time>2014-07-05T20:08:30Z</time>
      </trkpt>
      <trkpt lat="45.71581" lon="5.47473">
        <ele>267.574219</ele>
        <time>2014-07-05T20:08:35Z</time>
      </trkpt>
      <trkpt lat="45.71586" lon="5.47465">
        <ele>267.757812</ele>
        <time>2014-07-05T20:08:40Z</time>
      </trkpt>
      <trkpt lat="45.71611" lon="5.47477">
        <ele>265.261719</ele>
        <time>2014-07-05T20:08:45Z</time>
      </trkpt>
      <trkpt lat="45.71652" lon="5.47469">
        <ele>262.601562</ele>
        <time>2014-07-05T20:08:50Z</time>
      </trkpt>
      <trkpt lat="45.71638" lon="5.47503">
        <ele>262.375</ele>
        <time>2014-07-05T20:08:55Z</time>
      </trkpt>
      <trkpt lat="45.71638" lon="5.47544">
        <ele>260.660156</ele>
        <time>2014-07-05T20:09:00Z</time>
      </trkpt>
      <trkpt lat="45.71616" lon="5.47635">
        <ele>258.835938</ele>
        <time>2014-07-05T20:09:05Z</time>
      </trkpt>
      <trkpt lat="45.71585" lon="5.47725">
        <ele>259.953125</ele>
        <time>2014-07-05T20:09:10Z</time>
      </trkpt>
      <trkpt lat="45.71564" lon="5.47755">
        <ele>260.601562</ele>
        <time>2014-07-05T20:09:15Z</time>
      </trkpt>
      <trkpt lat="45.71564" lon="5.47756">
        <ele>260.574219</ele>
        <time>2014-07-05T20:09:20Z</time>
      </trkpt>
      <trkpt lat="45.71539" lon="5.47782">
        <ele>260.824219</ele>
        <time>2014-07-05T20:09:25Z</time>
      </trkpt>
      <trkpt lat="45.71537" lon="5.47783">
        <ele>260.796875</ele>
        <time>2014-07-05T20:09:30Z</time>
      </trkpt>
      <trkpt lat="45.71495" lon="5.47814">
        <ele>259.691406</ele>
        <time>2014-07-05T20:09:35Z</time>
      </trkpt>
      <trkpt lat="45.71496" lon="5.47814">
        <ele>259.691406</ele>
        <time>2014-07-05T20:09:40Z</time>
      </trkpt>
      <trkpt lat="45.71429" lon="5.47828">
        <ele>260.054688</ele>
        <time>2014-07-05T20:09:45Z</time>
      </trkpt>
      <trkpt lat="45.71429" lon="5.47828">
        <ele>260.046875</ele>
        <time>2014-07-05T20:09:50Z</time>
      </trkpt>
      <trkpt lat="45.71352" lon="5.47857">
        <ele>258.175781</ele>
        <time>2014-07-05T20:09:55Z</time>
      </trkpt>
      <trkpt lat="45.71341" lon="5.47842">
        <ele>259.113281</ele>
        <time>2014-07-05T20:10:00Z</time>
      </trkpt>
      <trkpt lat="45.71311" lon="5.47851">
        <ele>259.867188</ele>
        <time>2014-07-05T20:10:05Z</time>
      </trkpt>
      <trkpt lat="45.71311" lon="5.47852">
        <ele>259.839844</ele>
        <time>2014-07-05T20:10:10Z</time>
      </trkpt>
      <trkpt lat="45.71288" lon="5.47851">
        <ele>260.710938</ele>
        <time>2014-07-05T20:10:15Z</time>
      </trkpt>
      <trkpt lat="45.71255" lon="5.47851">
        <ele>261.882812</ele>
        <time>2014-07-05T20:10:20Z</time>
      </trkpt>
      <trkpt lat="45.71219" lon="5.47856">
        <ele>262.027344</ele>
        <time>2014-07-05T20:10:25Z</time>
      </trkpt>
      <trkpt lat="45.71174" lon="5.47854">
        <ele>261.132812</ele>
        <time>2014-07-05T20:10:30Z</time>
      </trkpt>
      <trkpt lat="45.71081" lon="5.47848">
        <ele>256.621094</ele>
        <time>2014-07-05T20:10:35Z</time>
      </trkpt>
      <trkpt lat="45.7103" lon="5.47814">
        <ele>253.683594</ele>
        <time>2014-07-05T20:10:40Z</time>
      </trkpt>
      <trkpt lat="45.70985" lon="5.47785">
        <ele>250.96875</ele>
        <time>2014-07-05T20:10:45Z</time>
      </trkpt>
      <trkpt lat="45.70977" lon="5.47771">
        <ele>250.417969</ele>
        <time>2014-07-05T20:10:50Z</time>
      </trkpt>
      <trkpt lat="45.7098" lon="5.47732">
        <ele>250.550781</ele>
        <time>2014-07-05T20:10:55Z</time>
      </trkpt>
      <trkpt lat="45.7098" lon="5.47733">
        <ele>250.550781</ele>
        <time>2014-07-05T20:11:00Z</time>
      </trkpt>
      <trkpt lat="45.7098" lon="5.47708">
        <ele>250.53125</ele>
        <time>2014-07-05T20:11:05Z</time>
      </trkpt>
      <trkpt lat="45.70944" lon="5.47762">
        <ele>249.578125</ele>
        <time>2014-07-05T20:11:10Z</time>
      </trkpt>
      <trkpt lat="45.70944" lon="5.47762">
        <ele>249.597656</ele>
        <time>2014-07-05T20:11:15Z</time>
      </trkpt>
      <trkpt lat="45.70901" lon="5.4787">
        <ele>250.628906</ele>
        <time>2014-07-05T20:11:20Z</time>
      </trkpt>
      <trkpt lat="45.70901" lon="5.47871">
        <ele>250.65625</ele>
        <time>2014-07-05T20:11:25Z</time>
      </trkpt>
      <trkpt lat="45.70882" lon="5.47841">
        <ele>251.003906</ele>
        <time>2014-07-05T20:11:30Z</time>
      </trkpt>
      <trkpt lat="45.70882" lon="5.47841">
        <ele>251.003906</ele>
        <time>2014-07-05T20:11:35Z</time>
      </trkpt>
      <trkpt lat="45.7086" lon="5.47814">
        <ele>251.082031</ele>
        <time>2014-07-05T20:11:40Z</time>
      </trkpt>
      <trkpt lat="45.70812" lon="5.47778">
        <ele>250.527344</ele>
        <time>2014-07-05T20:11:45Z</time>
      </trkpt>
      <trkpt lat="45.70795" lon="5.47736">
        <ele>249.570312</ele>
        <time>2014-07-05T20:11:50Z</time>
      </trkpt>
      <trkpt lat="45.70795" lon="5.47737">
        <ele>249.59375</ele>
        <time>2014-07-05T20:11:55Z</time>
      </trkpt>
      <trkpt lat="45.70785" lon="5.47709">
        <ele>249.269531</ele>
        <time>2014-07-05T20:12:00Z</time>
      </trkpt>
      <trkpt lat="45.70785" lon="5.47709">
        <ele>249.257812</ele>
        <time>2014-07-05T20:12:05Z</time>
      </trkpt>
      <trkpt lat="45.70781" lon="5.47618">
        <ele>249.628906</ele>
        <time>2014-07-05T20:12:10Z</time>
      </trkpt>
      <trkpt lat="45.70788" lon="5.47511">
        <ele>250</ele>
        <time>2014-07-05T20:12:15Z</time>
      </trkpt>
      <trkpt lat="45.70764" lon="5.47358">
        <ele>249.152344</ele>
        <time>2014-07-05T20:12:20Z</time>
      </trkpt>
      <trkpt lat="45.70764" lon="5.47359">
        <ele>249.179688</ele>
        <time>2014-07-05T20:12:25Z</time>
      </trkpt>
      <trkpt lat="45.70729" lon="5.47352">
        <ele>250.148438</ele>
        <time>2014-07-05T20:12:30Z</time>
      </trkpt>
      <trkpt lat="45.70708" lon="5.4729">
        <ele>249.707031</ele>
        <time>2014-07-05T20:12:35Z</time>
      </trkpt>
      <trkpt lat="45.70711" lon="5.47221">
        <ele>248</ele>
        <time>2014-07-05T20:12:40Z</time>
      </trkpt>
      <trkpt lat="45.70697" lon="5.47152">
        <ele>247.3125</ele>
        <time>2014-07-05T20:12:45Z</time>
      </trkpt>
      <trkpt lat="45.70689" lon="5.47178">
        <ele>247.976562</ele>
        <time>2014-07-05T20:12:50Z</time>
      </trkpt>
      <trkpt lat="45.70672" lon="5.47209">
        <ele>248.570312</ele>
        <time>2014-07-05T20:12:55Z</time>
      </trkpt>
      <trkpt lat="45.70671" lon="5.47209">
        <ele>248.589844</ele>
        <time>2014-07-05T20:13:00Z</time>
      </trkpt>
      <trkpt lat="45.70655" lon="5.47225">
        <ele>249.460938</ele>
        <time>2014-07-05T20:13:05Z</time>
      </trkpt>
      <trkpt lat="45.70655" lon="5.47226">
        <ele>249.488281</ele>
        <time>2014-07-05T20:13:10Z</time>
      </trkpt>
      <trkpt lat="45.70591" lon="5.47266">
        <ele>255.214844</ele>
        <time>2014-07-05T20:13:15Z</time>
      </trkpt>
      <trkpt lat="45.70536" lon="5.47271">
        <ele>259.542969</ele>
        <time>2014-07-05T20:13:20Z</time>
      </trkpt>
      <trkpt lat="45.70435" lon="5.47265">
        <ele>260.835938</ele>
        <time>2014-07-05T20:13:25Z</time>
      </trkpt>
      <trkpt lat="45.70354" lon="5.47311">
        <ele>257.386719</ele>
        <time>2014-07-05T20:13:30Z</time>
      </trkpt>
      <trkpt lat="45.70354" lon="5.47312">
        <ele>257.441406</ele>
        <time>2014-07-05T20:13:35Z</time>
      </trkpt>
      <trkpt lat="45.70296" lon="5.47339">
        <ele>256.910156</ele>
        <time>2014-07-05T20:13:40Z</time>
      </trkpt>
      <trkpt lat="45.70198" lon="5.4738">
        <ele>256.257812</ele>
        <time>2014-07-05T20:13:45Z</time>
      </trkpt>
      <trkpt lat="45.70183" lon="5.47374">
        <ele>255.910156</ele>
        <time>2014-07-05T20:13:50Z</time>
      </trkpt>
      <trkpt lat="45.70182" lon="5.47374">
        <ele>255.886719</ele>
        <time>2014-07-05T20:13:55Z</time>
      </trkpt>
      <trkpt lat="45.7015" lon="5.47392">
        <ele>255.632812</ele>
        <time>2014-07-05T20:14:00Z</time>
      </trkpt>
      <trkpt lat="45.70149" lon="5.47392">
        <ele>255.609375</ele>
        <time>2014-07-05T20:14:05Z</time>
      </trkpt>
      <trkpt lat="45.6999" lon="5.47524">
        <ele>255</ele>
        <time>2014-07-05T20:14:10Z</time>
      </trkpt>
      <trkpt lat="45.69912" lon="5.47567">
        <ele>255.070312</ele>
        <time>2014-07-05T20:14:15Z</time>
      </trkpt>
      <trkpt lat="45.69857" lon="5.47627">
        <ele>252.53125</ele>
        <time>2014-07-05T20:14:20Z</time>
      </trkpt>
      <trkpt lat="45.69855" lon="5.47627">
        <ele>252.421875</ele>
        <time>2014-07-05T20:14:25Z</time>
      </trkpt>
      <trkpt lat="45.69838" lon="5.47635">
        <ele>252.132812</ele>
        <time>2014-07-05T20:14:30Z</time>
      </trkpt>
      <trkpt lat="45.69808" lon="5.47647">
        <ele>251.691406</ele>
        <time>2014-07-05T20:14:35Z</time>
      </trkpt>
      <trkpt lat="45.69701" lon="5.47649">
        <ele>250.683594</ele>
        <time>2014-07-05T20:14:40Z</time>
      </trkpt>
      <trkpt lat="45.69636" lon="5.47682">
        <ele>248.25</ele>
        <time>2014-07-05T20:14:45Z</time>
      </trkpt>
      <trkpt lat="45.69615" lon="5.47689">
        <ele>246.632812</ele>
        <time>2014-07-05T20:14:50Z</time>
      </trkpt>
      <trkpt lat="45.69596" lon="5.47728">
        <ele>247.886719</ele>
        <time>2014-07-05T20:14:55Z</time>
      </trkpt>
      <trkpt lat="45.69553" lon="5.47806">
        <ele>249.96875</ele>
        <time>2014-07-05T20:15:00Z</time>
      </trkpt>
      <trkpt lat="45.69421" lon="5.47898">
        <ele>238.785156</ele>
        <time>2014-07-05T20:15:05Z</time>
      </trkpt>
      <trkpt lat="45.69338" lon="5.47946">
        <ele>227.171875</ele>
        <time>2014-07-05T20:15:10Z</time>
      </trkpt>
      <trkpt lat="45.69338" lon="5.47947">
        <ele>227.144531</ele>
        <time>2014-07-05T20:15:15Z</time>
      </trkpt>
      <trkpt lat="45.69293" lon="5.47905">
        <ele>222.277344</ele>
        <time>2014-07-05T20:15:20Z</time>
      </trkpt>
      <trkpt lat="45.69276" lon="5.4784">
        <ele>219.800781</ele>
        <time>2014-07-05T20:15:25Z</time>
      </trkpt>
      <trkpt lat="45.6924" lon="5.47771">
        <ele>217.757812</ele>
        <time>2014-07-05T20:15:30Z</time>
      </trkpt>
      <trkpt lat="45.69241" lon="5.47771">
        <ele>217.800781</ele>
        <time>2014-07-05T20:15:35Z</time>
      </trkpt>
      <trkpt lat="45.69217" lon="5.47745">
        <ele>215.929688</ele>
        <time>2014-07-05T20:15:40Z</time>
      </trkpt>
      <trkpt lat="45.69184" lon="5.47728">
        <ele>212.863281</ele>
        <time>2014-07-05T20:15:45Z</time>
      </trkpt>
      <trkpt lat="45.69185" lon="5.47729">
        <ele>212.886719</ele>
        <time>2014-07-05T20:15:50Z</time>
      </trkpt>
      <trkpt lat="45.69217" lon="5.47641">
        <ele>215.042969</ele>
        <time>2014-07-05T20:15:55Z</time>
      </trkpt>
      <trkpt lat="45.69217" lon="5.47642">
        <ele>215.046875</ele>
        <time>2014-07-05T20:16:00Z</time>
      </trkpt>
      <trkpt lat="45.69237" lon="5.47582">
        <ele>215.765625</ele>
        <time>2014-07-05T20:16:05Z</time>
      </trkpt>
      <trkpt lat="45.69238" lon="5.47583">
        <ele>215.789062</ele>
        <time>2014-07-05T20:16:10Z</time>
      </trkpt>
      <trkpt lat="45.69319" lon="5.476">
        <ele>220.824219</ele>
        <time>2014-07-05T20:16:15Z</time>
      </trkpt>
      <trkpt lat="45.69342" lon="5.47621">
        <ele>222.382812</ele>
        <time>2014-07-05T20:16:20Z</time>
      </trkpt>
      <trkpt lat="45.69353" lon="5.47651">
        <ele>223.285156</ele>
        <time>2014-07-05T20:16:25Z</time>
      </trkpt>
      <trkpt lat="45.69377" lon="5.47662">
        <ele>225.609375</ele>
        <time>2014-07-05T20:16:30Z</time>
      </trkpt>
      <trkpt lat="45.69416" lon="5.47668">
        <ele>228.265625</ele>
        <time>2014-07-05T20:16:35Z</time>
      </trkpt>
      <trkpt lat="45.69472" lon="5.47661">
        <ele>230.234375</ele>
        <time>2014-07-05T20:16:40Z</time>
      </trkpt>
      <trkpt lat="45.69472" lon="5.47662">
        <ele>230.269531</ele>
        <time>2014-07-05T20:16:45Z</time>
      </trkpt>
      <trkpt lat="45.69533" lon="5.47619">
        <ele>230.511719</ele>
        <time>2014-07-05T20:16:50Z</time>
      </trkpt>
      <trkpt lat="45.69546" lon="5.47554">
        <ele>228.859375</ele>
        <time>2014-07-05T20:16:55Z</time>
      </trkpt>
      <trkpt lat="45.69559" lon="5.47441">
        <ele>230.042969</ele>
        <time>2014-07-05T20:17:00Z</time>
      </trkpt>
      <trkpt lat="45.69563" lon="5.47408">
        <ele>230.355469</ele>
        <time>2014-07-05T20:17:05Z</time>
      </trkpt>
      <trkpt lat="45.69564" lon="5.47408">
        <ele>230.386719</ele>
        <time>2014-07-05T20:17:10Z</time>
      </trkpt>
      <trkpt lat="45.69638" lon="5.47274">
        <ele>230.0625</ele>
        <time>2014-07-05T20:17:15Z</time>
      </trkpt>
      <trkpt lat="45.69589" lon="5.47253">
        <ele>228.125</ele>
        <time>2014-07-05T20:17:20Z</time>
      </trkpt>
      <trkpt lat="45.69545" lon="5.47247">
        <ele>225.011719</ele>
        <time>2014-07-05T20:17:25Z</time>
      </trkpt>
      <trkpt lat="45.69514" lon="5.47331">
        <ele>225.359375</ele>
        <time>2014-07-05T20:17:30Z</time>
      </trkpt>
      <trkpt lat="45.69408" lon="5.47407">
        <ele>223.9375</ele>
        <time>2014-07-05T20:17:35Z</time>
      </trkpt>
      <trkpt lat="45.69408" lon="5.47408">
        <ele>224.019531</ele>
        <time>2014-07-05T20:17:40Z</time>
      </trkpt>
      <trkpt lat="45.69355" lon="5.47405">
        <ele>220.773438</ele>
        <time>2014-07-05T20:17:45Z</time>
      </trkpt>
      <trkpt lat="45.69355" lon="5.47406">
        <ele>220.941406</ele>
        <time>2014-07-05T20:17:50Z</time>
      </trkpt>
      <trkpt lat="45.69344" lon="5.47443">
        <ele>223.253906</ele>
        <time>2014-07-05T20:17:55Z</time>
      </trkpt>
    </trkseg>
  </trk>
</gpx>